createdAt,value
2023-05-25T00:00:16.814Z,99253.09
2023-05-25T00:03:04.098Z,99257.81
2023-05-25T00:05:31.214Z,99258.09
2023-05-25T00:07:58.327Z,99254.81
2023-05-25T00:10:25.063Z,99260.53
2023-05-25T00:12:52.117Z,99259.69
2023-05-25T00:15:19.082Z,99256.38
2023-05-25T00:17:49.073Z,99264.81
2023-05-25T00:20:16.266Z,99272.81
2023-05-25T00:22:44.984Z,99271.94
2023-05-25T00:25:12.095Z,99275.41
2023-05-25T00:27:39.149Z,99275.69
2023-05-25T00:30:06.856Z,99280.28
2023-05-25T00:32:34.167Z,99284.38
2023-05-25T00:35:01.253Z,99289.25
2023-05-25T00:37:28.286Z,99286.94
2023-05-25T00:39:55.074Z,99288.81
2023-05-25T00:42:22.171Z,99284.63
2023-05-25T00:44:49.067Z,99284.22
2023-05-25T00:47:16.939Z,99281.34
2023-05-25T00:49:43.697Z,99274.63
2023-05-25T00:52:11.960Z,99273.47
2023-05-25T00:54:39.220Z,99272.75
2023-05-25T00:57:07.350Z,99273.03
2023-05-25T00:59:46.716Z,99270.19
2023-05-25T01:02:17.064Z,99274.19
2023-05-25T01:04:45.613Z,99263.06
2023-05-25T01:07:17.739Z,99269.59
2023-05-25T01:09:44.966Z,99269.88
2023-05-25T01:12:12.123Z,99270.00
2023-05-25T01:14:40.575Z,99267.28
2023-05-25T01:17:08.499Z,99268.72
2023-05-25T01:19:36.335Z,99273.31
2023-05-25T01:22:05.430Z,99269.28
2023-05-25T01:24:33.976Z,99280.03
2023-05-25T01:27:01.737Z,99275.28
2023-05-25T01:29:28.595Z,99276.56
2023-05-25T01:31:55.688Z,99274.88
2023-05-25T01:34:22.539Z,99281.59
2023-05-25T01:36:49.783Z,99291.13
2023-05-25T01:39:16.540Z,99281.44
2023-05-25T01:41:43.621Z,99291.88
2023-05-25T01:44:10.477Z,99290.13
2023-05-25T01:46:38.802Z,99293.00
2023-05-25T01:49:24.560Z,99297.13
2023-05-25T01:52:18.608Z,99295.25
2023-05-25T01:54:48.232Z,99302.81
2023-05-25T01:57:16.067Z,99308.53
2023-05-25T01:59:43.466Z,99300.94
2023-05-25T02:02:10.687Z,99297.91
2023-05-25T02:04:37.417Z,99296.50
2023-05-25T02:07:05.115Z,99300.06
2023-05-25T02:09:31.944Z,99298.50
2023-05-25T02:11:59.056Z,99292.50
2023-05-25T02:14:25.928Z,99295.34
2023-05-25T02:16:53.308Z,99297.47
2023-05-25T02:19:20.169Z,99289.19
2023-05-25T02:21:47.309Z,99286.47
2023-05-25T02:24:14.252Z,99287.19
2023-05-25T02:26:41.464Z,99276.47
2023-05-25T02:29:08.288Z,99279.13
2023-05-25T02:31:35.615Z,99276.88
2023-05-25T02:34:03.167Z,99280.28
2023-05-25T02:36:30.318Z,99273.03
2023-05-25T02:38:57.108Z,99277.03
2023-05-25T02:41:26.294Z,99280.84
2023-05-25T02:43:53.764Z,99280.28
2023-05-25T02:46:20.964Z,99278.84
2023-05-25T02:48:47.753Z,99285.44
2023-05-25T02:51:14.822Z,99293.97
2023-05-25T02:53:41.874Z,99289.97
2023-05-25T02:56:10.435Z,99284.84
2023-05-25T02:58:38.549Z,99282.50
2023-05-25T03:01:06.201Z,99286.69
2023-05-25T03:03:33.094Z,99293.84
2023-05-25T03:06:00.160Z,99289.31
2023-05-25T03:08:26.902Z,99292.63
2023-05-25T03:10:53.972Z,99290.66
2023-05-25T03:13:20.914Z,99285.34
2023-05-25T03:15:47.976Z,99290.78
2023-05-25T03:18:14.748Z,99294.06
2023-05-25T03:20:41.891Z,99290.91
2023-05-25T03:23:08.698Z,99290.78
2023-05-25T03:25:35.773Z,99298.19
2023-05-25T03:28:02.538Z,99299.91
2023-05-25T03:30:30.568Z,99304.34
2023-05-25T03:32:57.380Z,99301.56
2023-05-25T03:35:24.672Z,99300.72
2023-05-25T03:37:51.386Z,99303.16
2023-05-25T03:40:18.525Z,99305.59
2023-05-25T03:42:45.264Z,99303.03
2023-05-25T03:45:12.301Z,99302.56
2023-05-25T03:47:39.086Z,99310.03
2023-05-25T03:50:09.572Z,99309.19
2023-05-25T03:52:36.359Z,99306.03
2023-05-25T03:55:05.213Z,99310.84
2023-05-25T03:57:32.003Z,99313.41
2023-05-25T03:59:59.127Z,99322.91
2023-05-25T04:02:26.073Z,99319.00
2023-05-25T04:04:53.581Z,99319.13
2023-05-25T04:07:20.660Z,99324.44
2023-05-25T04:09:47.795Z,99330.75
2023-05-25T04:12:14.526Z,99329.97
2023-05-25T04:14:42.720Z,99328.13
2023-05-25T04:17:09.695Z,99326.97
2023-05-25T04:19:36.807Z,99329.84
2023-05-25T04:22:04.418Z,99337.38
2023-05-25T04:24:32.646Z,99330.25
2023-05-25T04:26:59.707Z,99338.13
2023-05-25T04:29:27.081Z,99333.81
2023-05-25T04:31:54.768Z,99351.50
2023-05-25T04:34:21.825Z,99345.66
2023-05-25T04:36:49.492Z,99342.09
2023-05-25T04:39:16.628Z,99344.78
2023-05-25T04:41:43.749Z,99341.94
2023-05-25T04:44:10.878Z,99344.66
2023-05-25T04:46:39.093Z,99351.50
2023-05-25T04:49:08.415Z,99354.28
2023-05-25T04:51:36.071Z,99356.31
2023-05-25T04:54:03.303Z,99356.13
2023-05-25T04:56:30.043Z,99361.41
2023-05-25T04:58:57.133Z,99360.69
2023-05-25T05:01:24.101Z,99363.53
2023-05-25T05:03:51.472Z,99362.81
2023-05-25T05:06:18.398Z,99370.41
2023-05-25T05:08:45.469Z,99367.97
2023-05-25T05:11:12.216Z,99365.41
2023-05-25T05:13:39.295Z,99368.84
2023-05-25T05:16:06.632Z,99370.56
2023-05-25T05:18:33.693Z,99370.28
2023-05-25T05:21:00.537Z,99379.44
2023-05-25T05:23:27.683Z,99378.50
2023-05-25T05:25:54.419Z,99378.72
2023-05-25T05:28:21.605Z,99383.13
2023-05-25T05:30:48.437Z,99378.41
2023-05-25T05:33:15.863Z,99385.84
2023-05-25T05:35:43.020Z,99379.56
2023-05-25T05:38:10.222Z,99381.75
2023-05-25T05:40:37.007Z,99385.31
2023-05-25T05:43:04.096Z,99380.88
2023-05-25T05:45:30.874Z,99386.31
2023-05-25T05:47:57.963Z,99385.91
2023-05-25T05:50:24.760Z,99394.91
2023-05-25T05:52:53.658Z,99395.16
2023-05-25T05:55:21.099Z,99392.06
2023-05-25T05:57:48.296Z,99398.66
2023-05-25T06:00:16.271Z,99405.78
2023-05-25T06:02:43.524Z,99405.78
2023-05-25T06:05:10.634Z,99405.06
2023-05-25T06:07:38.488Z,99411.19
2023-05-25T06:10:05.993Z,99407.50
2023-05-25T06:12:33.026Z,99414.50
2023-05-25T06:14:59.801Z,99416.25
2023-05-25T06:17:28.163Z,99421.56
2023-05-25T06:19:55.392Z,99414.38
2023-05-25T06:22:24.023Z,99420.59
2023-05-25T06:24:50.788Z,99420.72
2023-05-25T06:27:17.836Z,99421.94
2023-05-25T06:29:44.591Z,99420.47
2023-05-25T06:32:11.730Z,99420.47
2023-05-25T06:34:38.889Z,99426.88
2023-05-25T06:37:07.082Z,99426.25
2023-05-25T06:39:33.941Z,99423.03
2023-05-25T06:42:01.700Z,99425.59
2023-05-25T06:44:28.482Z,99420.78
2023-05-25T06:46:55.531Z,99428.19
2023-05-25T06:49:22.304Z,99425.47
2023-05-25T06:51:51.230Z,99429.53
2023-05-25T06:54:19.600Z,99433.75
2023-05-25T06:56:46.827Z,99437.22
2023-05-25T06:59:13.630Z,99433.97
2023-05-25T07:01:41.189Z,99435.69
2023-05-25T07:04:08.007Z,99437.13
2023-05-25T07:06:35.073Z,99440.88
2023-05-25T07:09:01.888Z,99429.75
2023-05-25T07:11:28.936Z,99425.16
2023-05-25T07:13:55.686Z,99425.44
2023-05-25T07:16:22.796Z,99425.16
2023-05-25T07:18:49.628Z,99435.19
2023-05-25T07:21:17.375Z,99436.50
2023-05-25T07:23:44.148Z,99435.78
2023-05-25T07:26:11.322Z,99441.94
2023-05-25T07:28:38.123Z,99433.78
2023-05-25T07:31:05.260Z,99443.38
2023-05-25T07:33:32.088Z,99447.81
2023-05-25T07:35:59.164Z,99447.56
2023-05-25T07:38:25.990Z,99451.38
2023-05-25T07:40:53.150Z,99451.13
2023-05-25T07:43:20.052Z,99450.00
2023-05-25T07:45:47.265Z,99452.88
2023-05-25T07:48:14.263Z,99459.47
2023-05-25T07:50:41.464Z,99462.91
2023-05-25T07:53:08.331Z,99456.50
2023-05-25T07:55:35.465Z,99459.09
2023-05-25T07:58:02.263Z,99457.34
2023-05-25T08:00:29.689Z,99453.53
2023-05-25T08:02:56.882Z,99460.06
2023-05-25T08:05:24.130Z,99448.09
2023-05-25T08:07:50.877Z,99457.53
2023-05-25T08:10:17.988Z,99453.84
2023-05-25T08:12:49.736Z,99447.25
2023-05-25T08:15:17.906Z,99444.41
2023-05-25T08:17:45.073Z,99449.13
2023-05-25T08:20:12.599Z,99445.44
2023-05-25T08:22:39.444Z,99442.41
2023-05-25T08:25:06.976Z,99445.75
2023-05-25T08:27:35.672Z,99442.16
2023-05-25T08:30:05.852Z,99449.91
2023-05-25T08:32:32.672Z,99455.22
2023-05-25T08:34:59.761Z,99447.78
2023-05-25T08:37:26.536Z,99451.97
2023-05-25T08:39:53.561Z,99452.69
2023-05-25T08:42:21.004Z,99451.41
2023-05-25T08:44:48.153Z,99459.09
2023-05-25T08:47:15.424Z,99457.09
2023-05-25T08:49:42.589Z,99450.53
2023-05-25T08:52:11.386Z,99452.81
2023-05-25T08:54:38.542Z,99451.13
2023-05-25T08:57:16.209Z,99449.56
2023-05-25T08:59:58.473Z,99453.03
2023-05-25T09:02:43.613Z,99449.56
2023-05-25T09:05:10.769Z,99452.59
2023-05-25T09:07:37.577Z,99456.09
2023-05-25T09:10:05.183Z,99460.41
2023-05-25T09:12:32.054Z,99453.84
2023-05-25T09:14:59.318Z,99450.97
2023-05-25T09:17:26.843Z,99454.28
2023-05-25T09:19:54.351Z,99457.59
2023-05-25T09:22:21.188Z,99459.31
2023-05-25T09:24:48.282Z,99464.44
2023-05-25T09:27:19.301Z,99460.63
2023-05-25T09:29:49.963Z,99466.50
2023-05-25T09:32:17.570Z,99451.59
2023-05-25T09:34:48.014Z,99450.16
2023-05-25T09:37:16.479Z,99457.91
2023-05-25T09:39:44.129Z,99457.66
2023-05-25T09:42:11.610Z,99448.47
2023-05-25T09:44:39.512Z,99450.91
2023-05-25T09:47:06.509Z,99455.94
2023-05-25T09:49:33.632Z,99461.94
2023-05-25T09:52:00.723Z,99458.09
2023-05-25T09:54:27.800Z,99458.81
2023-05-25T09:56:54.646Z,99451.09
2023-05-25T09:59:24.698Z,99459.38
2023-05-25T10:01:52.258Z,99451.09
2023-05-25T10:04:19.422Z,99455.97
2023-05-25T10:06:46.988Z,99453.97
2023-05-25T10:09:14.652Z,99457.97
2023-05-25T10:11:41.438Z,99457.84
2023-05-25T10:14:08.869Z,99452.25
2023-05-25T10:16:36.419Z,99451.41
2023-05-25T10:19:06.987Z,99457.56
2023-05-25T10:21:33.797Z,99455.53
2023-05-25T10:24:05.016Z,99451.69
2023-05-25T10:26:33.967Z,99444.09
2023-05-25T10:29:04.685Z,99448.97
2023-05-25T10:31:34.060Z,99451.84
2023-05-25T10:34:01.303Z,99453.56
2023-05-25T10:36:28.145Z,99445.25
2023-05-25T10:38:55.182Z,99450.25
2023-05-25T10:41:22.052Z,99447.97
2023-05-25T10:43:49.128Z,99445.25
2023-05-25T10:46:16.476Z,99434.50
2023-05-25T10:48:51.780Z,99443.09
2023-05-25T10:51:21.979Z,99460.19
2023-05-25T10:53:59.116Z,99454.59
2023-05-25T10:56:26.405Z,99451.59
2023-05-25T10:58:53.729Z,99448.72
2023-05-25T11:01:20.848Z,99448.56
2023-05-25T11:03:48.689Z,99445.72
2023-05-25T11:06:16.501Z,99444.41
2023-05-25T11:08:59.886Z,99442.56
2023-05-25T11:11:45.522Z,99447.88
2023-05-25T11:14:21.981Z,99434.81
2023-05-25T11:17:11.653Z,99436.38
2023-05-25T11:19:41.510Z,99435.09
2023-05-25T11:22:21.298Z,99445.09
2023-05-25T11:24:49.222Z,99438.66
2023-05-25T11:27:16.054Z,99434.06
2023-05-25T11:29:43.670Z,99431.75
2023-05-25T11:32:14.469Z,99432.50
2023-05-25T11:34:42.084Z,99426.03
2023-05-25T11:37:11.077Z,99429.78
2023-05-25T11:39:39.629Z,99425.75
2023-05-25T11:42:11.185Z,99426.59
2023-05-25T11:44:39.165Z,99428.19
2023-05-25T11:47:13.404Z,99425.31
2023-05-25T11:49:42.061Z,99419.84
2023-05-25T11:52:09.087Z,99420.28
2023-05-25T11:54:36.463Z,99417.53
2023-05-25T11:57:03.774Z,99410.06
2023-05-25T11:59:32.658Z,99422.56
2023-05-25T12:02:00.759Z,99415.53
2023-05-25T12:04:28.788Z,99415.66
2023-05-25T12:07:06.799Z,99422.97
2023-05-25T12:09:34.424Z,99419.22
2023-05-25T12:12:01.518Z,99415.66
2023-05-25T12:14:28.625Z,99415.78
2023-05-25T12:16:55.957Z,99415.78
2023-05-25T12:19:23.128Z,99410.06
2023-05-25T12:21:51.588Z,99413.63
2023-05-25T12:24:18.865Z,99413.34
2023-05-25T12:26:49.751Z,99415.91
2023-05-25T12:29:16.929Z,99405.00
2023-05-25T12:31:43.848Z,99409.13
2023-05-25T12:34:14.026Z,99401.56
2023-05-25T12:36:53.349Z,99404.56
2023-05-25T12:39:29.650Z,99399.69
2023-05-25T12:42:00.234Z,99394.22
2023-05-25T12:44:31.480Z,99400.53
2023-05-25T12:47:23.476Z,99394.91
2023-05-25T12:49:52.216Z,99400.22
2023-05-25T12:52:38.311Z,99395.78
2023-05-25T12:55:28.094Z,99396.19
2023-05-25T12:57:55.793Z,99392.91
2023-05-25T13:00:24.087Z,99393.44
2023-05-25T13:02:53.639Z,99378.66
2023-05-25T13:05:25.168Z,99381.25
2023-05-25T13:07:53.719Z,99380.41
2023-05-25T13:10:21.203Z,99385.53
2023-05-25T13:12:48.825Z,99385.53
2023-05-25T13:15:18.733Z,99383.53
2023-05-25T13:17:45.552Z,99383.38
2023-05-25T13:20:16.239Z,99379.78
2023-05-25T13:22:43.647Z,99384.13
2023-05-25T13:25:11.564Z,99382.38
2023-05-25T13:27:38.371Z,99376.94
2023-05-25T13:30:08.700Z,99385.13
2023-05-25T13:32:35.758Z,99391.13
2023-05-25T13:35:04.619Z,99378.53
2023-05-25T13:37:33.358Z,99378.06
2023-05-25T13:40:00.714Z,99383.81
2023-05-25T13:42:27.888Z,99380.63
2023-05-25T13:44:54.904Z,99382.03
2023-05-25T13:47:22.111Z,99377.03
2023-05-25T13:49:49.035Z,99379.63
2023-05-25T13:52:16.222Z,99384.22
2023-05-25T13:54:42.982Z,99387.81
2023-05-25T13:57:10.053Z,99388.34
2023-05-25T13:59:37.633Z,99384.78
2023-05-25T14:02:04.879Z,99384.78
2023-05-25T14:04:31.740Z,99388.50
2023-05-25T14:06:59.440Z,99384.78
2023-05-25T14:09:26.279Z,99380.88
2023-05-25T14:11:53.774Z,99373.00
2023-05-25T14:14:31.314Z,99376.59
2023-05-25T14:17:01.171Z,99382.03
2023-05-25T14:19:28.559Z,99373.88
2023-05-25T14:22:11.965Z,99372.69
2023-05-25T14:24:40.593Z,99374.56
2023-05-25T14:27:07.693Z,99374.41
2023-05-25T14:29:34.782Z,99372.53
2023-05-25T14:32:02.029Z,99363.78
2023-05-25T14:34:29.482Z,99369.94
2023-05-25T14:36:56.787Z,99372.88
2023-05-25T14:39:23.658Z,99371.13
2023-05-25T14:41:50.878Z,99364.84
2023-05-25T14:44:17.787Z,99375.75
2023-05-25T14:46:45.116Z,99362.94
2023-05-25T14:49:13.690Z,99368.41
2023-05-25T14:51:41.461Z,99366.53
2023-05-25T14:54:08.854Z,99363.50
2023-05-25T14:56:36.559Z,99362.81
2023-05-25T14:59:03.283Z,99356.78
2023-05-25T15:01:30.364Z,99363.09
2023-05-25T15:03:57.292Z,99356.78
2023-05-25T15:06:24.477Z,99361.38
2023-05-25T15:08:51.261Z,99363.94
2023-05-25T15:11:18.503Z,99361.38
2023-05-25T15:13:45.385Z,99363.09
2023-05-25T15:16:13.256Z,99356.25
2023-05-25T15:18:40.100Z,99355.22
2023-05-25T15:21:07.281Z,99361.38
2023-05-25T15:23:34.109Z,99361.53
2023-05-25T15:26:04.253Z,99357.09
2023-05-25T15:28:31.549Z,99358.09
2023-05-25T15:31:01.610Z,99355.38
2023-05-25T15:33:43.621Z,99361.84
2023-05-25T15:36:17.097Z,99358.25
2023-05-25T15:38:44.559Z,99360.13
2023-05-25T15:41:12.771Z,99353.28
2023-05-25T15:43:39.670Z,99355.81
2023-05-25T15:46:06.808Z,99356.41
2023-05-25T15:48:33.666Z,99358.53
2023-05-25T15:51:00.998Z,99353.53
2023-05-25T15:53:27.760Z,99351.38
2023-05-25T15:55:54.850Z,99345.94
2023-05-25T15:58:21.596Z,99348.81
2023-05-25T16:00:48.667Z,99349.66
2023-05-25T16:03:15.536Z,99348.81
2023-05-25T16:05:42.806Z,99351.53
2023-05-25T16:08:11.705Z,99354.13
2023-05-25T16:10:38.768Z,99353.38
2023-05-25T16:13:05.516Z,99350.53
2023-05-25T16:15:33.078Z,99352.50
2023-05-25T16:18:01.303Z,99352.66
2023-05-25T16:20:28.635Z,99347.06
2023-05-25T16:22:55.459Z,99351.66
2023-05-25T16:25:22.642Z,99340.75
2023-05-25T16:27:49.460Z,99339.00
2023-05-25T16:30:16.563Z,99347.06
2023-05-25T16:32:43.435Z,99347.94
2023-05-25T16:35:10.508Z,99343.34
2023-05-25T16:37:37.273Z,99347.94
2023-05-25T16:40:04.606Z,99346.94
2023-05-25T16:42:31.370Z,99341.47
2023-05-25T16:44:58.545Z,99338.88
2023-05-25T16:47:25.508Z,99337.16
2023-05-25T16:49:52.579Z,99340.63
2023-05-25T16:52:19.424Z,99335.19
2023-05-25T16:54:46.536Z,99338.75
2023-05-25T16:57:13.340Z,99339.75
2023-05-25T16:59:40.986Z,99339.75
2023-05-25T17:02:07.807Z,99330.56
2023-05-25T17:04:34.864Z,99329.56
2023-05-25T17:07:01.579Z,99326.25
2023-05-25T17:09:28.690Z,99331.88
2023-05-25T17:11:59.467Z,99329.84
2023-05-25T17:14:26.882Z,99326.41
2023-05-25T17:16:53.691Z,99328.84
2023-05-25T17:19:20.799Z,99329.72
2023-05-25T17:21:48.165Z,99326.13
2023-05-25T17:24:15.414Z,99331.44
2023-05-25T17:26:42.260Z,99326.13
2023-05-25T17:29:09.334Z,99334.00
2023-05-25T17:31:36.249Z,99333.16
2023-05-25T17:34:03.412Z,99328.72
2023-05-25T17:36:30.196Z,99334.19
2023-05-25T17:38:57.374Z,99326.69
2023-05-25T17:41:24.150Z,99333.41
2023-05-25T17:43:51.232Z,99320.53
2023-05-25T17:46:18.065Z,99334.28
2023-05-25T17:48:45.763Z,99323.53
2023-05-25T17:51:12.559Z,99332.56
2023-05-25T17:53:39.634Z,99332.72
2023-05-25T17:56:06.650Z,99340.03
2023-05-25T17:58:33.697Z,99332.88
2023-05-25T18:01:01.222Z,99332.16
2023-05-25T18:03:28.631Z,99330.44
2023-05-25T18:05:55.695Z,99338.47
2023-05-25T18:08:22.882Z,99343.22
2023-05-25T18:10:50.640Z,99339.66
2023-05-25T18:13:17.834Z,99343.38
2023-05-25T18:15:44.839Z,99346.09
2023-05-25T18:18:14.685Z,99338.06
2023-05-25T18:20:41.459Z,99349.41
2023-05-25T18:23:08.734Z,99353.03
2023-05-25T18:25:35.534Z,99356.75
2023-05-25T18:28:02.664Z,99356.91
2023-05-25T18:30:29.443Z,99355.03
2023-05-25T18:32:56.487Z,99357.19
2023-05-25T18:35:23.260Z,99356.63
2023-05-25T18:37:50.305Z,99359.38
2023-05-25T18:40:17.164Z,99361.38
2023-05-25T18:42:44.230Z,99355.09
2023-05-25T18:45:11.085Z,99363.72
2023-05-25T18:47:38.463Z,99369.72
2023-05-25T18:50:05.902Z,99363.72
2023-05-25T18:52:32.993Z,99371.47
2023-05-25T18:54:59.780Z,99377.78
2023-05-25T18:57:27.048Z,99366.03
2023-05-25T18:59:53.914Z,99367.16
2023-05-25T19:02:21.396Z,99370.78
2023-05-25T19:04:49.605Z,99374.63
2023-05-25T19:07:16.725Z,99373.66
2023-05-25T19:09:43.613Z,99376.38
2023-05-25T19:12:10.776Z,99368.19
2023-05-25T19:14:37.731Z,99366.47
2023-05-25T19:17:04.970Z,99376.94
2023-05-25T19:19:31.782Z,99374.63
2023-05-25T19:21:58.884Z,99374.94
2023-05-25T19:24:25.770Z,99367.63
2023-05-25T19:26:52.852Z,99376.81
2023-05-25T19:29:19.645Z,99374.38
2023-05-25T19:31:46.692Z,99369.47
2023-05-25T19:34:13.533Z,99360.59
2023-05-25T19:36:40.778Z,99375.38
2023-05-25T19:39:07.552Z,99371.94
2023-05-25T19:41:36.450Z,99369.34
2023-05-25T19:44:03.226Z,99369.81
2023-05-25T19:46:30.718Z,99368.50
2023-05-25T19:48:57.865Z,99377.13
2023-05-25T19:51:24.941Z,99373.28
2023-05-25T19:53:52.196Z,99375.16
2023-05-25T19:56:19.255Z,99371.25
2023-05-25T19:58:46.161Z,99366.41
2023-05-25T20:01:13.358Z,99373.72
2023-05-25T20:03:40.228Z,99368.53
2023-05-25T20:06:07.369Z,99371.88
2023-05-25T20:08:34.105Z,99367.72
2023-05-25T20:11:02.691Z,99372.44
2023-05-25T20:13:29.627Z,99376.16
2023-05-25T20:15:56.794Z,99373.59
2023-05-25T20:18:26.583Z,99375.84
2023-05-25T20:20:53.669Z,99378.16
2023-05-25T20:23:20.915Z,99374.59
2023-05-25T20:25:48.043Z,99371.28
2023-05-25T20:28:14.874Z,99364.84
2023-05-25T20:30:42.094Z,99369.72
2023-05-25T20:33:08.891Z,99366.84
2023-05-25T20:35:36.615Z,99368.28
2023-05-25T20:38:03.422Z,99364.59
2023-05-25T20:40:30.680Z,99366.69
2023-05-25T20:42:57.580Z,99358.53
2023-05-25T20:45:24.789Z,99369.28
2023-05-25T20:48:01.653Z,99357.97
2023-05-25T20:50:28.962Z,99364.44
2023-05-25T20:52:55.946Z,99363.69
2023-05-25T20:55:23.179Z,99364.72
2023-05-25T20:57:49.909Z,99367.31
2023-05-25T21:00:17.136Z,99361.84
2023-05-25T21:02:43.940Z,99368.56
2023-05-25T21:05:11.116Z,99367.00
2023-05-25T21:07:37.845Z,99368.28
2023-05-25T21:10:05.686Z,99364.72
2023-05-25T21:12:32.438Z,99357.69
2023-05-25T21:14:59.472Z,99355.13
2023-05-25T21:17:26.510Z,99362.41
2023-05-25T21:19:53.717Z,99364.56
2023-05-25T21:22:20.672Z,99365.88
2023-05-25T21:24:48.000Z,99370.28
2023-05-25T21:27:14.858Z,99362.53
2023-05-25T21:29:42.167Z,99369.84
2023-05-25T21:32:09.223Z,99358.13
2023-05-25T21:34:36.334Z,99369.84
2023-05-25T21:37:03.410Z,99360.13
2023-05-25T21:39:30.593Z,99366.56
2023-05-25T21:41:57.326Z,99357.97
2023-05-25T21:44:24.422Z,99362.25
2023-05-25T21:46:51.242Z,99364.13
2023-05-25T21:49:18.510Z,99362.69
2023-05-25T21:51:45.324Z,99363.69
2023-05-25T21:54:12.400Z,99366.13
2023-05-25T21:56:39.244Z,99377.44
2023-05-25T21:59:06.331Z,99369.69
2023-05-25T22:01:33.283Z,99369.41
2023-05-25T22:04:00.455Z,99371.28
2023-05-25T22:06:27.223Z,99373.84
2023-05-25T22:08:54.345Z,99378.16
2023-05-25T22:11:22.287Z,99373.41
2023-05-25T22:13:49.365Z,99379.72
2023-05-25T22:16:16.168Z,99365.25
2023-05-25T22:18:43.296Z,99373.69
2023-05-25T22:21:10.078Z,99378.28
2023-05-25T22:23:37.309Z,99376.56
2023-05-25T22:26:05.147Z,99375.44
2023-05-25T22:28:32.307Z,99367.25
2023-05-25T22:30:59.265Z,99370.81
2023-05-25T22:33:26.430Z,99371.13
2023-05-25T22:35:53.207Z,99377.72
2023-05-25T22:38:20.515Z,99371.97
2023-05-25T22:40:47.789Z,99371.53
2023-05-25T22:43:15.021Z,99374.53
2023-05-25T22:45:41.819Z,99372.81
2023-05-25T22:48:09.003Z,99368.81
2023-05-25T22:50:37.005Z,99371.09
2023-05-25T22:53:04.582Z,99369.53
2023-05-25T22:55:31.776Z,99369.97
2023-05-25T22:57:58.851Z,99365.78
2023-05-25T23:00:25.790Z,99362.78
2023-05-25T23:02:52.930Z,99368.09
2023-05-25T23:05:19.804Z,99357.91
2023-05-25T23:07:46.987Z,99348.34
2023-05-25T23:10:13.905Z,99352.06
2023-05-25T23:12:41.051Z,99355.78
2023-05-25T23:15:09.394Z,99346.88
2023-05-25T23:17:36.498Z,99354.06
2023-05-25T23:20:07.671Z,99355.19
2023-05-25T23:22:34.824Z,99356.91
2023-05-25T23:25:01.688Z,99365.50
2023-05-25T23:27:28.748Z,99358.06
2023-05-25T23:29:55.465Z,99362.16
2023-05-25T23:32:22.565Z,99366.22
2023-05-25T23:34:49.344Z,99363.78
2023-05-25T23:37:16.553Z,99358.44
2023-05-25T23:39:43.296Z,99359.56
2023-05-25T23:42:12.156Z,99361.44
2023-05-25T23:44:38.894Z,99364.28
2023-05-25T23:47:06.265Z,99362.16
2023-05-25T23:49:33.046Z,99359.56
2023-05-25T23:52:00.034Z,99362.88
2023-05-25T23:54:26.817Z,99359.84
2023-05-25T23:56:53.849Z,99358.16
2023-05-25T23:59:20.709Z,99359.41
